Albany, New York
Traffic Map
Current Weather Conditions
Albany, New York
Few Clouds
Few Clouds
42°
Feels Like: 42°
Wind Chill: 42° Ceiling: Unl
Heat Index: 42° Visibility: 10mi
Dew Point: 36° Wind: 0mph
Humidity: 79% Direction: ° ()
Pressure: 30.32in Gusts: 0mph
Raw Report DataKALB 211151Z 00000KT 10SM FEW260 06/02 A3032 RMK AO2 SLP268 T00560022 10089 20044 53019
Traffic Incident Summary
Active as of:
Severity:
Category:
InformationThere was an issue retrieving the traffic information for this location. Please try a different location or try again shortly.
Advertisements